Time;durP1;ratioP1;P1;durP2;ratioP2;P2;SDS_P1;SDS_P2;PMS_P1;PMS_P2;Temp;Humidity;BMP_temperature;BMP_pressure;BME280_temperature;BME280_humidity;BME280_pressure;Samples;Min_cycle;Max_cycle;Signal;HPM_P1;HPM_P2
2022/09/04 00:00:21;;;;;;;10.60;8.10;;;;;;;-145.18;100.00;46660.41;4992165;28;20128;-69
2022/09/04 00:02:49;;;;;;;13.77;8.30;;;;;;;-145.18;100.00;46642.81;4990836;28;20082;-69
2022/09/04 00:05:35;;;;;;;11.10;8.43;;;;;;;-145.18;100.00;46660.41;4992316;28;20034;-69
2022/09/04 00:08:12;;;;;;;11.67;8.87;;;;;;;-145.18;100.00;46660.41;4991741;28;20023;-69
2022/09/04 00:10:44;;;;;;;16.77;10.07;;;;;;;-145.18;100.00;46644.78;4992254;28;20030;-69
2022/09/04 00:13:20;;;;;;;12.37;8.77;;;;;;;-145.18;100.00;46644.78;4991918;28;20117;-69
2022/09/04 00:15:53;;;;;;;15.98;9.60;;;;;;;-145.18;100.00;46646.72;4992207;28;20034;-69
2022/09/04 00:18:40;;;;;;;14.13;10.03;;;;;;;-145.18;100.00;46646.72;4992043;28;20023;-69
2022/09/04 00:21:11;;;;;;;11.83;8.00;;;;;;;-145.18;100.00;46640.88;4992389;28;20479;-71
2022/09/04 00:23:40;;;;;;;11.70;8.03;;;;;;;-145.18;100.00;46660.41;4991832;28;20030;-69
2022/09/04 00:26:32;;;;;;;10.97;7.53;;;;;;;-145.18;100.00;46677.97;4992131;28;20049;-69
2022/09/04 00:29:16;;;;;;;15.17;8.43;;;;;;;-145.18;100.00;46644.78;4992425;28;20442;-69
2022/09/04 00:32:09;;;;;;;14.30;8.57;;;;;;;-145.18;100.00;46646.72;4991549;28;20030;-69
2022/09/04 00:34:53;;;;;;;13.43;8.23;;;;;;;-145.18;100.00;46652.59;4991923;28;20026;-69
2022/09/04 00:37:24;;;;;;;11.43;8.90;;;;;;;-145.18;100.00;46644.78;4973762;28;20430;-69
2022/09/04 00:39:53;;;;;;;18.63;9.20;;;;;;;-145.18;100.00;46652.59;4992002;28;20034;-69
2022/09/04 00:42:41;;;;;;;11.57;8.97;;;;;;;-145.18;100.00;46652.59;4991642;28;20069;-69
2022/09/04 00:45:06;;;;;;;18.67;9.67;;;;;;;-145.18;100.00;46648.69;4994503;28;20108;-68
2022/09/04 00:48:02;;;;;;;10.93;9.10;;;;;;;-145.18;100.00;46646.72;4995210;28;20487;-69
2022/09/04 00:50:39;;;;;;;12.60;9.60;;;;;;;-145.18;100.00;46648.69;4995218;28;20038;-68
2022/09/04 00:53:42;;;;;;;13.73;9.47;;;;;;;-145.18;100.00;46646.72;4995432;28;20026;-69
2022/09/04 00:56:24;;;;;;;11.80;9.30;;;;;;;-145.18;100.00;46648.69;4995534;28;20041;-69
2022/09/04 00:59:11;;;;;;;13.27;8.87;;;;;;;-145.18;100.00;46648.69;4995190;28;20027;-68
2022/09/04 01:01:36;;;;;;;16.03;9.80;;;;;;;-145.18;100.00;46644.78;4994720;28;20026;-69
2022/09/04 01:04:32;;;;;;;15.30;9.80;;;;;;;-145.18;100.00;46650.63;4995560;28;20593;-68
2022/09/04 01:07:34;;;;;;;15.13;9.83;;;;;;;-145.18;100.00;46642.81;4995385;28;20471;-69
2022/09/04 01:10:13;;;;;;;15.93;9.27;;;;;;;-145.18;100.00;46648.69;4995490;28;20288;-69
2022/09/04 01:12:51;;;;;;;14.17;10.03;;;;;;;-145.18;100.00;46644.78;4994856;28;20026;-69
2022/09/04 01:15:33;;;;;;;12.00;9.10;;;;;;;-145.18;100.00;46644.78;4995141;28;20054;-68
2022/09/04 01:18:22;;;;;;;13.63;10.23;;;;;;;-145.18;100.00;46646.72;4994932;28;20054;-68
2022/09/04 01:20:53;;;;;;;16.37;10.23;;;;;;;-145.18;100.00;46644.78;4994935;28;20034;-69
2022/09/04 01:23:49;;;;;;;15.47;10.10;;;;;;;-145.18;100.00;46650.63;4994920;28;20439;-69
2022/09/04 01:26:24;;;;;;;11.75;9.93;;;;;;;-145.18;100.00;46644.78;4994937;28;20038;-68
2022/09/04 01:28:52;;;;;;;14.47;10.83;;;;;;;-145.18;100.00;46644.78;4994821;28;20403;-69
2022/09/04 01:31:43;;;;;;;15.47;10.03;;;;;;;-145.18;100.00;46679.94;4977351;28;20661;-69
2022/09/04 01:34:42;;;;;;;13.87;9.60;;;;;;;-145.18;100.00;46644.78;4995093;28;20022;-69
2022/09/04 01:37:38;;;;;;;10.13;9.03;;;;;;;-145.18;100.00;46644.78;4994459;28;20399;-69
2022/09/04 01:40:27;;;;;;;11.07;9.88;;;;;;;-145.18;100.00;46679.94;4994745;28;20072;-69
2022/09/04 01:42:58;;;;;;;17.47;10.10;;;;;;;-145.18;100.00;46642.81;4994132;28;20034;-69
2022/09/04 01:45:46;;;;;;;12.37;10.17;;;;;;;-145.18;100.00;46644.78;4994372;28;20026;-68
2022/09/04 01:48:18;;;;;;;13.47;10.50;;;;;;;-145.18;100.00;46681.88;4994282;28;20027;-69
2022/09/04 01:50:49;;;;;;;11.10;9.63;;;;;;;-145.18;100.00;46646.72;4994633;28;20038;-69
2022/09/04 01:53:25;;;;;;;15.67;9.77;;;;;;;-145.18;100.00;46648.69;4994237;28;20032;-69
2022/09/04 01:56:07;;;;;;;14.90;11.53;;;;;;;-145.18;100.00;46646.72;4993862;28;20061;-69
2022/09/04 01:58:46;;;;;;;15.53;10.33;;;;;;;-145.18;100.00;46644.78;4994177;28;20240;-69
2022/09/04 02:03:56;;;;;;;17.53;11.33;;;;;;;-145.18;100.00;46660.41;4993478;23;20046;-67
2022/09/04 02:06:55;;;;;;;21.67;11.80;;;;;;;-145.18;100.00;46660.41;4984543;28;20399;-67
2022/09/04 02:09:29;;;;;;;16.87;12.23;;;;;;;-145.18;100.00;46660.41;4992787;28;20057;-69
2022/09/04 02:12:24;;;;;;;14.37;11.90;;;;;;;-145.18;100.00;46660.41;4993668;28;20057;-70
2022/09/04 02:15:05;;;;;;;17.13;12.60;;;;;;;-145.18;100.00;46660.41;4993480;28;20022;-70
2022/09/04 02:17:54;;;;;;;19.43;13.20;;;;;;;-145.18;100.00;46679.94;4989079;28;20084;-69
2022/09/04 02:20:28;;;;;;;14.90;12.63;;;;;;;-145.18;100.00;46660.41;4993934;28;20045;-69
2022/09/04 02:23:00;;;;;;;12.83;11.40;;;;;;;-145.18;100.00;46660.41;4993061;28;20046;-67
2022/09/04 02:25:31;;;;;;;16.17;13.20;;;;;;;-145.18;100.00;46660.41;4993433;28;20037;-67
2022/09/04 02:28:02;;;;;;;15.37;13.07;;;;;;;-145.18;100.00;46660.41;4992755;28;20026;-67
2022/09/04 02:30:34;;;;;;;13.90;11.83;;;;;;;-145.18;100.00;46660.41;4993285;28;20046;-69
2022/09/04 02:33:10;;;;;;;15.53;12.30;;;;;;;-145.18;100.00;46660.41;4992940;28;20034;-70
2022/09/04 02:35:47;;;;;;;13.47;12.10;;;;;;;-145.18;100.00;46660.41;4993700;28;20034;-69
2022/09/04 02:38:18;;;;;;;16.23;13.47;;;;;;;-145.18;100.00;46660.41;4993311;28;20026;-70
2022/09/04 02:40:58;;;;;;;14.90;13.30;;;;;;;-145.18;100.00;46660.41;4993174;28;20061;-70
2022/09/04 02:43:39;;;;;;;13.63;12.23;;;;;;;-145.18;100.00;46660.41;4992759;28;20557;-69
2022/09/04 02:46:43;;;;;;;18.40;13.23;;;;;;;-145.18;100.00;46660.41;4993248;28;20036;-67
2022/09/04 02:49:23;;;;;;;15.10;13.07;;;;;;;-145.18;100.00;46660.41;4913798;29;20036;-70
2022/09/04 02:52:20;;;;;;;15.17;13.57;;;;;;;-145.18;100.00;46658.44;4913285;29;20043;-70
2022/09/04 02:55:06;;;;;;;16.45;13.13;;;;;;;-145.18;100.00;46660.41;4974809;28;20038;-67
2022/09/04 02:58:00;;;;;;;19.67;12.70;;;;;;;-145.18;100.00;46656.50;4992415;28;20505;-69
2022/09/04 03:00:46;;;;;;;19.43;13.97;;;;;;;-145.18;100.00;46660.41;4993516;28;20022;-68
2022/09/04 03:03:27;;;;;;;16.73;13.20;;;;;;;-145.18;100.00;46660.41;4992333;28;20046;-68
2022/09/04 03:06:12;;;;;;;20.80;13.37;;;;;;;-145.18;100.00;46660.41;4992743;28;20034;-67
2022/09/04 03:08:48;;;;;;;17.17;13.10;;;;;;;-145.18;100.00;46660.41;4991668;28;20161;-67
2022/09/04 03:11:24;;;;;;;15.87;12.23;;;;;;;-145.18;100.00;46660.41;4992694;28;20030;-67
2022/09/04 03:14:19;;;;;;;19.83;12.50;;;;;;;-145.18;100.00;46660.41;4992102;28;20141;-67
2022/09/04 03:16:49;;;;;;;16.33;12.30;;;;;;;-145.18;100.00;46660.41;4976409;28;20038;-68
2022/09/04 03:19:21;;;;;;;15.47;12.10;;;;;;;-145.18;100.00;46660.41;4992404;28;20022;-70
2022/09/04 03:22:05;;;;;;;13.83;12.30;;;;;;;-145.18;100.00;46660.41;4992271;28;20026;-68
2022/09/04 03:24:41;;;;;;;16.03;12.20;;;;;;;-145.18;100.00;46660.41;4992431;28;20077;-69
2022/09/04 03:27:11;;;;;;;25.30;13.20;;;;;;;-145.18;100.00;46660.41;4991962;28;20050;-70
2022/09/04 03:29:50;;;;;;;17.43;13.70;;;;;;;-145.18;100.00;46660.41;4992748;28;20479;-70
2022/09/04 03:32:31;;;;;;;16.17;13.57;;;;;;;-145.18;100.00;46656.50;4992540;28;20045;-69
2022/09/04 03:35:19;;;;;;;19.43;13.73;;;;;;;-145.18;100.00;46660.41;4992663;28;20022;-69
2022/09/04 03:37:52;;;;;;;17.73;13.70;;;;;;;-145.18;100.00;46660.41;4991616;28;20029;-69
2022/09/04 03:40:23;;;;;;;18.17;13.47;;;;;;;-145.18;100.00;46660.41;4992367;28;20521;-70
2022/09/04 03:43:03;;;;;;;15.80;14.17;;;;;;;-145.18;100.00;46660.41;4991726;28;20479;-69
2022/09/04 03:45:41;;;;;;;20.80;14.47;;;;;;;-145.18;100.00;46660.41;4992443;28;20460;-69
2022/09/04 03:48:34;;;;;;;22.60;14.77;;;;;;;-145.18;100.00;46660.41;4974648;28;20030;-69
2022/09/04 03:51:24;;;;;;;15.97;14.37;;;;;;;-145.18;100.00;46656.50;4991302;28;20026;-69
2022/09/04 03:53:52;;;;;;;19.43;15.30;;;;;;;-145.18;100.00;46658.44;4991617;28;20034;-69
2022/09/04 03:57:05;;;;;;;18.07;15.23;;;;;;;-145.18;100.00;46658.44;4992411;28;20118;-69
2022/09/04 03:59:39;;;;;;;18.30;15.23;;;;;;;-145.18;100.00;46658.44;4947918;28;20179;-69
2022/09/04 04:02:24;;;;;;;16.57;14.77;;;;;;;-145.18;100.00;46660.41;4949589;28;20051;-69
2022/09/04 04:05:03;;;;;;;24.83;16.23;;;;;;;-145.18;100.00;46660.41;4973700;28;20041;-69
2022/09/04 04:07:51;;;;;;;19.83;15.90;;;;;;;-145.18;100.00;46658.44;4990075;28;20030;-69
2022/09/04 04:10:57;;;;;;;22.07;15.93;;;;;;;-145.18;100.00;46656.50;4991054;28;20125;-69
2022/09/04 04:13:47;;;;;;;18.35;16.23;;;;;;;-145.18;100.00;46654.53;4991109;28;20077;-69
2022/09/04 04:16:58;;;;;;;20.40;17.30;;;;;;;-145.18;100.00;46656.50;4989073;28;20063;-69
2022/09/04 04:19:35;;;;;;;24.77;18.20;;;;;;;-145.18;100.00;46654.53;4975320;28;20029;-69
2022/09/04 04:22:18;;;;;;;21.00;17.97;;;;;;;-145.18;100.00;46640.88;4990880;28;20026;-69
2022/09/04 04:24:56;;;;;;;22.33;17.80;;;;;;;-145.18;100.00;46650.63;4991202;28;20027;-69
2022/09/04 04:27:59;;;;;;;22.37;17.87;;;;;;;-145.18;100.00;46652.59;4991226;28;20022;-69
2022/09/04 04:30:33;;;;;;;23.43;17.57;;;;;;;-145.18;100.00;46650.63;4991155;28;20117;-69
2022/09/04 04:33:41;;;;;;;20.93;17.50;;;;;;;-145.18;100.00;46652.59;4990549;28;20088;-69
2022/09/04 04:36:36;;;;;;;24.20;18.10;;;;;;;-145.18;100.00;46654.53;4991397;28;20608;-69
2022/09/04 04:39:23;;;;;;;20.80;17.43;;;;;;;-145.18;100.00;46642.81;4990511;28;20027;-69
2022/09/04 04:42:10;;;;;;;23.33;17.37;;;;;;;-145.18;100.00;46638.91;4990959;28;20463;-69
2022/09/04 04:47:53;;;;;;;18.47;16.00;;;;;;;-145.18;100.00;46654.53;4982535;28;20064;-69
2022/09/04 04:50:27;;;;;;;21.30;17.40;;;;;;;-145.18;100.00;46652.59;4981129;28;20068;-69
2022/09/04 04:53:04;;;;;;;17.37;15.63;;;;;;;-145.18;100.00;46652.59;4990226;28;20065;-69
2022/09/04 04:55:49;;;;;;;17.50;15.23;;;;;;;-145.18;100.00;46654.53;4991222;28;20036;-69
2022/09/04 04:58:26;;;;;;;17.23;15.53;;;;;;;-145.18;100.00;46654.53;4990785;28;20173;-69
2022/09/04 05:01:10;;;;;;;18.87;16.87;;;;;;;-145.18;100.00;46652.59;4990515;28;20124;-69
2022/09/04 05:03:35;;;;;;;23.27;16.83;;;;;;;-145.18;100.00;46652.59;4990848;28;20062;-69
2022/09/04 05:06:27;;;;;;;22.23;17.17;;;;;;;-145.18;100.00;46652.59;4991357;28;20494;-69
2022/09/04 05:09:10;;;;;;;18.70;16.30;;;;;;;-145.18;100.00;46654.53;4990655;28;20066;-69
2022/09/04 05:11:57;;;;;;;21.47;16.27;;;;;;;-145.18;100.00;46650.63;4991405;28;20096;-69
2022/09/04 05:14:28;;;;;;;18.80;15.57;;;;;;;-145.18;100.00;46652.59;4990855;28;20026;-69
2022/09/04 05:17:03;;;;;;;23.23;15.97;;;;;;;-145.18;100.00;46654.53;4991496;28;20061;-69
2022/09/04 05:19:44;;;;;;;22.58;17.17;;;;;;;-145.18;100.00;46652.59;4987960;28;20050;-69
2022/09/04 05:22:18;;;;;;;24.40;17.20;;;;;;;-145.18;100.00;46656.50;4987792;28;20483;-69
2022/09/04 05:25:06;;;;;;;25.80;17.73;;;;;;;-145.18;100.00;46654.53;4990589;28;20109;-69
2022/09/04 05:27:47;;;;;;;20.57;17.43;;;;;;;-145.18;100.00;46654.53;4982943;28;20049;-69
2022/09/04 05:30:44;;;;;;;21.50;17.17;;;;;;;-145.18;100.00;46656.50;4990419;28;20030;-69
2022/09/04 05:33:09;;;;;;;19.77;17.10;;;;;;;-145.18;100.00;46654.53;4994536;28;20526;-69
2022/09/04 05:36:06;;;;;;;19.33;17.17;;;;;;;-145.18;100.00;46650.63;4994773;28;20105;-69
2022/09/04 05:38:37;;;;;;;;;;;;;;;-145.18;100.00;46652.59;4994875;28;20026;-69
2022/09/04 05:41:24;;;;;;;21.53;17.93;;;;;;;-145.18;100.00;46650.63;4994237;28;19956;-69
2022/09/04 05:44:22;;;;;;;20.67;17.00;;;;;;;-145.18;100.00;46642.81;4993910;28;20073;-70
2022/09/04 05:47:42;;;;;;;19.83;17.70;;;;;;;-145.18;100.00;46652.59;4993931;28;20066;-69
2022/09/04 05:50:25;;;;;;;21.20;15.97;;;;;;;-145.18;100.00;46650.63;4953097;29;20081;-69
2022/09/04 05:53:09;;;;;;;20.07;17.13;;;;;;;-145.18;100.00;46650.63;4989951;28;20046;-69
2022/09/04 05:55:54;;;;;;;18.63;16.67;;;;;;;-145.18;100.00;46652.59;4993913;28;20371;-69
2022/09/04 05:58:40;;;;;;;19.37;17.23;;;;;;;-145.18;100.00;46650.63;4993488;28;20117;-70
2022/09/04 06:01:34;;;;;;;18.00;16.10;;;;;;;-145.18;100.00;46654.53;4993929;28;20105;-69
2022/09/04 06:04:29;;;;;;;22.03;17.30;;;;;;;-145.18;100.00;46654.53;4992816;28;20156;-69
2022/09/04 06:07:10;;;;;;;24.33;17.93;;;;;;;-145.18;100.00;46652.59;4980304;28;20046;-69
2022/09/04 06:10:59;;;;;;;20.75;17.65;;;;;;;-145.18;100.00;46652.59;5067449;28;20410;-67
2022/09/04 06:13:30;;;;;;;18.83;16.93;;;;;;;-145.18;100.00;46652.59;5068165;28;20037;-68
2022/09/04 06:16:01;;;;;;;21.73;17.50;;;;;;;-145.18;100.00;46640.88;5067859;28;20036;-68
2022/09/04 06:18:55;;;;;;;19.67;16.70;;;;;;;-145.18;100.00;46650.63;5067492;28;20163;-68
2022/09/04 06:21:30;;;;;;;22.27;17.73;;;;;;;-145.18;100.00;46652.59;5067735;28;20075;-68
2022/09/04 06:24:22;;;;;;;21.17;17.30;;;;;;;-145.18;100.00;46652.59;5068674;28;20029;-68
2022/09/04 06:26:54;;;;;;;29.43;17.53;;;;;;;-145.18;100.00;46642.81;5087225;28;20032;-69
2022/09/04 06:29:28;;;;;;;20.30;17.10;;;;;;;-145.18;100.00;46652.59;5087857;28;20032;-69
2022/09/04 06:32:19;;;;;;;20.27;17.23;;;;;;;-145.18;100.00;46640.88;5072191;28;20036;-70
2022/09/04 06:35:18;;;;;;;23.40;17.37;;;;;;;-145.18;100.00;46650.63;5067777;28;20060;-69
2022/09/04 06:38:15;;;;;;;20.27;18.03;;;;;;;-145.18;100.00;46652.59;5067668;28;20147;-70
2022/09/04 06:40:52;;;;;;;23.63;17.40;;;;;;;-145.18;100.00;46640.88;5088351;28;20631;-69
2022/09/04 06:43:30;;;;;;;21.60;16.67;;;;;;;-145.18;100.00;46650.63;5088569;28;20028;-69
2022/09/04 06:45:58;;;;;;;22.67;16.53;;;;;;;-145.18;100.00;46642.81;5088215;28;20486;-69
2022/09/04 06:48:38;;;;;;;20.60;16.23;;;;;;;-145.18;100.00;46650.63;5087736;28;20107;-70
2022/09/04 06:51:31;;;;;;;23.27;17.77;;;;;;;-145.18;100.00;46652.59;5087882;28;20024;-70
2022/09/04 06:54:21;;;;;;;19.30;16.63;;;;;;;-145.18;100.00;46640.88;5087152;28;20047;-70
2022/09/04 06:57:10;;;;;;;21.53;17.30;;;;;;;-145.18;100.00;46652.59;5087907;28;20024;-70
2022/09/04 06:59:46;;;;;;;21.77;17.30;;;;;;;-145.18;100.00;46650.63;5087510;28;20024;-70
2022/09/04 07:02:27;;;;;;;19.60;16.10;;;;;;;-145.18;100.00;46642.81;5088267;28;20047;-70
2022/09/04 07:05:26;;;;;;;21.90;16.37;;;;;;;-145.18;100.00;46652.59;5087818;28;20040;-70
2022/09/04 07:08:15;;;;;;;22.30;16.30;;;;;;;-145.18;100.00;46652.59;5078423;28;20048;-70
2022/09/04 07:11:06;;;;;;;24.97;17.00;;;;;;;-145.18;100.00;46650.63;5087313;28;20081;-70
2022/09/04 07:13:43;;;;;;;17.73;15.93;;;;;;;-145.18;100.00;46609.59;5087053;28;20060;-70
2022/09/04 07:16:39;;;;;;;23.43;16.60;;;;;;;-145.18;100.00;46613.50;5087097;28;20431;-70
2022/09/04 07:19:31;;;;;;;21.95;16.33;;;;;;;-145.18;100.00;46613.50;5086648;28;20035;-70
2022/09/04 07:22:35;;;;;;;23.87;17.13;;;;;;;-145.18;100.00;46609.59;5074088;28;20568;-70
2022/09/04 07:25:12;;;;;;;22.07;16.93;;;;;;;-145.18;100.00;46611.56;5050832;28;20032;-70
2022/09/04 07:28:15;;;;;;;20.87;16.43;;;;;;;-145.18;100.00;46615.47;5071273;28;20067;-70
2022/09/04 07:30:52;;;;;;;22.80;17.13;;;;;;;-145.18;100.00;46615.47;5073671;28;20051;-70
2022/09/04 07:34:02;;;;;;;24.47;17.57;;;;;;;-145.18;100.00;46613.50;5073153;28;20048;-70
2022/09/04 07:36:37;;;;;;;20.77;17.03;;;;;;;-145.18;100.00;46619.38;5068618;28;20040;-70
2022/09/04 07:39:02;;;;;;;;;;;;;;;-145.18;100.00;46619.38;5073684;28;20424;-70
2022/09/04 07:41:38;;;;;;;22.23;17.13;;;;;;;-145.18;100.00;46617.41;5073622;28;19913;-70
2022/09/04 07:44:14;;;;;;;21.95;16.55;;;;;;;-145.18;100.00;46623.28;5072927;28;20033;-71
2022/09/04 07:47:00;;;;;;;21.03;16.83;;;;;;;-145.18;100.00;46617.41;5072556;28;20032;-70
2022/09/04 07:49:25;;;;;;;24.10;17.80;;;;;;;-145.18;100.00;46621.31;5073182;28;20029;-70
2022/09/04 07:52:02;;;;;;;23.00;18.10;;;;;;;-145.18;100.00;46621.31;5072970;28;20392;-71
2022/09/04 07:54:52;;;;;;;19.73;17.33;;;;;;;-145.18;100.00;46625.22;5073137;28;20028;-71
2022/09/04 07:57:29;;;;;;;24.60;17.43;;;;;;;-145.18;100.00;46625.22;5073464;28;20025;-70
2022/09/04 08:00:16;;;;;;;18.83;16.67;;;;;;;-145.18;100.00;46623.28;5072872;28;20028;-71
2022/09/04 08:02:42;;;;;;;22.30;18.33;;;;;;;-145.18;100.00;46631.09;5073323;28;20021;-71
2022/09/04 08:05:42;;;;;;;23.13;16.70;;;;;;;-145.18;100.00;46631.09;5073135;28;20039;-71
2022/09/04 08:08:30;;;;;;;19.37;16.70;;;;;;;-145.18;100.00;46633.06;5069575;28;20161;-71
2022/09/04 08:11:27;;;;;;;20.13;16.47;;;;;;;-145.18;100.00;46633.06;5072908;28;20063;-71
2022/09/04 08:14:39;;;;;;;18.13;16.17;;;;;;;-145.18;100.00;46636.94;5072834;28;20035;-71
2022/09/04 08:17:23;;;;;;;20.43;16.33;;;;;;;-145.18;100.00;46636.94;5069658;28;20041;-71
2022/09/04 08:20:08;;;;;;;19.50;16.67;;;;;;;-145.18;100.00;46636.94;5072603;28;20032;-71
2022/09/04 08:22:58;;;;;;;18.03;16.00;;;;;;;-145.18;100.00;46642.81;5072944;28;20044;-71
2022/09/04 08:25:55;;;;;;;18.80;14.87;;;;;;;-145.18;100.00;46640.88;5072828;28;20261;-71
2022/09/04 08:28:43;;;;;;;22.87;14.77;;;;;;;-145.18;100.00;46640.88;5072169;28;20081;-71
2022/09/04 08:31:19;;;;;;;23.27;14.27;;;;;;;-145.18;100.00;46636.94;5061548;28;20051;-71
2022/09/04 08:34:22;;;;;;;18.13;14.20;;;;;;;-145.18;100.00;46636.94;5071324;28;20366;-71
2022/09/04 08:37:15;;;;;;;15.30;13.03;;;;;;;-145.18;100.00;46625.22;5072463;28;20063;-71
2022/09/04 08:39:53;;;;;;;18.83;13.83;;;;;;;-145.18;100.00;46609.59;5071940;28;20051;-71
2022/09/04 08:42:47;;;;;;;19.10;14.43;;;;;;;-145.18;100.00;46621.31;5072057;28;20028;-71
2022/09/04 08:45:34;;;;;;;17.17;12.87;;;;;;;-145.18;100.00;46601.78;5072010;28;20401;-71
2022/09/04 08:48:24;;;;;;;15.90;12.37;;;;;;;-145.18;100.00;46574.44;5071804;28;20027;-71
2022/09/04 08:51:01;;;;;;;17.17;12.40;;;;;;;-145.18;100.00;46531.47;5072141;28;20056;-71
2022/09/04 08:53:45;;;;;;;13.70;11.87;;;;;;;-145.18;100.00;46511.94;5071904;28;20075;-71
2022/09/04 08:56:19;;;;;;;16.70;12.00;;;;;;;-145.18;100.00;46508.03;5072049;28;20035;-71
2022/09/04 08:59:11;;;;;;;14.93;12.03;;;;;;;-145.18;100.00;46513.91;5071809;28;20100;-71
2022/09/04 09:02:06;;;;;;;17.20;12.07;;;;;;;-145.18;100.00;46513.91;5071690;28;20028;-71
2022/09/04 09:04:49;;;;;;;16.57;11.33;;;;;;;-145.18;100.00;46511.94;5070364;28;20819;-71
2022/09/04 09:07:33;;;;;;;15.87;12.57;;;;;;;-145.18;100.00;46515.84;5071918;28;20036;-71
2022/09/04 09:10:31;;;;;;;13.60;11.33;;;;;;;-145.18;100.00;46506.09;5071059;28;20053;-71
2022/09/04 09:13:30;;;;;;;13.47;11.57;;;;;;;-145.18;100.00;46513.91;5058913;28;20043;-71
2022/09/04 09:16:31;;;;;;;16.20;11.87;;;;;;;-145.18;100.00;46510.00;5071509;28;20035;-72
2022/09/04 09:19:10;;;;;;;16.30;13.47;;;;;;;-145.18;100.00;46504.13;5068016;28;20040;-71
2022/09/04 09:21:50;;;;;;;13.50;11.53;;;;;;;-145.18;100.00;46496.31;5071396;28;20111;-72
2022/09/04 09:24:57;;;;;;;14.60;11.20;;;;;;;-145.18;100.00;46486.56;5036201;28;20033;-71
2022/09/04 09:27:43;;;;;;;13.63;10.57;;;;;;;-145.18;100.00;46494.38;5031734;28;20478;-71
2022/09/04 09:30:22;;;;;;;14.73;10.40;;;;;;;-145.18;100.00;46502.19;5030457;28;20091;-71
2022/09/04 09:32:56;;;;;;;14.55;11.73;;;;;;;-145.18;100.00;46511.94;5031506;28;20045;-71
2022/09/04 09:36:11;;;;;;;14.15;10.45;;;;;;;-145.18;100.00;46500.22;5030804;28;20029;-72
2022/09/04 09:38:41;;;;;;;11.55;9.75;;;;;;;-145.18;100.00;46500.22;4994381;28;20132;-72
2022/09/04 09:41:31;;;;;;;14.00;10.15;;;;;;;-145.18;100.00;46500.22;5030882;28;20057;-71
2022/09/04 09:44:17;;;;;;;14.45;9.65;;;;;;;-145.18;100.00;46496.31;5030665;28;20064;-71
2022/09/04 09:47:10;;;;;;;14.73;10.55;;;;;;;-145.18;100.00;46476.78;5031450;28;20432;-71
2022/09/04 09:50:04;;;;;;;15.93;10.43;;;;;;;-145.18;100.00;46480.69;5030821;28;20504;-71
2022/09/04 09:53:00;;;;;;;12.18;8.75;;;;;;;-145.18;100.00;46816.66;5030864;28;20035;-71
2022/09/04 09:55:43;;;;;;;15.02;8.52;;;;;;;-145.18;100.00;46965.13;5030220;28;20104;-71
2022/09/04 09:58:30;;;;;;;13.38;8.73;;;;;;;-145.18;100.00;46834.25;5030321;28;20040;-71
2022/09/04 10:00:58;;;;;;;13.77;8.07;;;;;;;-145.18;100.00;46937.78;5029968;28;20062;-72
2022/09/04 10:03:42;;;;;;;8.57;7.57;;;;;;;-145.18;100.00;47000.28;5038779;28;20033;-72
2022/09/04 10:06:26;;;;;;;11.77;5.80;;;;;;;-145.18;100.00;47035.44;5035912;28;20729;-71
2022/09/04 10:09:08;;;;;;;10.73;6.95;;;;;;;-145.18;100.00;46998.34;5036657;28;20137;-71
2022/09/04 10:12:06;;;;;;;11.77;6.78;;;;;;;-145.18;100.00;46963.19;5035058;28;20087;-72
2022/09/04 10:15:05;;;;;;;7.65;5.78;;;;;;;-145.18;100.00;46943.63;5030321;28;20187;-71
2022/09/04 10:18:16;;;;;;;12.80;6.25;;;;;;;-145.18;100.00;46945.59;5030839;28;20030;-71
2022/09/04 10:21:00;;;;;;;23.05;6.40;;;;;;;-145.18;100.00;46990.53;5029554;28;20099;-71
2022/09/04 10:23:50;;;;;;;12.05;6.47;;;;;;;-145.18;100.00;46945.59;5030147;28;20033;-72
2022/09/04 10:26:52;;;;;;;8.35;5.60;;;;;;;-145.18;100.00;46969.03;5030536;28;20113;-72
2022/09/04 10:29:43;;;;;;;9.60;7.15;;;;;;;-145.18;100.00;46986.63;5028638;28;20482;-72
2022/09/04 10:32:12;;;;;;;10.25;5.72;;;;;;;-145.18;100.00;46951.44;5029189;28;20025;-72
2022/09/04 10:35:08;;;;;;;12.60;6.22;;;;;;;-145.18;100.00;46937.78;5030058;28;20151;-72
2022/09/04 10:37:33;;;;;;;;;;;;;;;-145.18;100.00;46926.06;5030985;28;20033;-72
2022/09/04 10:42:59;;;;;;;8.05;5.20;;;;;;;-145.18;100.00;46926.06;5033241;28;19974;-72
2022/09/04 10:45:37;;;;;;;7.15;5.72;;;;;;;-145.18;100.00;46943.63;5048958;28;20037;-72
2022/09/04 10:48:18;;;;;;;9.48;5.60;;;;;;;-145.18;100.00;46947.53;5049924;28;20481;-72
2022/09/04 10:51:01;;;;;;;6.82;5.60;;;;;;;-145.18;100.00;46912.38;5049903;28;20111;-72
2022/09/04 10:53:51;;;;;;;7.60;5.20;;;;;;;-145.18;100.00;46904.56;5049124;28;20028;-72
2022/09/04 10:56:21;;;;;;;7.15;4.93;;;;;;;-145.18;100.00;46896.75;5051587;28;20044;-72
2022/09/04 10:59:08;;;;;;;5.47;4.30;;;;;;;-145.18;100.00;46898.72;5043837;28;20029;-72
2022/09/04 11:02:01;;;;;;;7.78;4.63;;;;;;;-145.18;100.00;46890.91;5041615;28;20123;-72
2022/09/04 11:04:37;;;;;;;5.50;4.15;;;;;;;-145.18;100.00;46902.63;5043979;28;20045;-72
2022/09/04 11:07:16;;;;;;;8.20;4.50;;;;;;;-145.18;100.00;46908.47;5041309;28;20075;-72
2022/09/04 11:10:07;;;;;;;5.95;4.03;;;;;;;-145.18;100.00;46941.69;5041833;28;20427;-72
2022/09/04 11:12:54;;;;;;;6.45;3.80;;;;;;;-145.18;100.00;46953.41;5045063;28;20171;-72
2022/09/04 11:15:37;;;;;;;5.72;4.10;;;;;;;-145.18;100.00;46912.38;5047777;28;20052;-71
2022/09/04 11:18:27;;;;;;;4.50;3.60;;;;;;;-145.18;100.00;46918.25;5045865;28;20060;-71
2022/09/04 11:21:20;;;;;;;7.45;4.13;;;;;;;-145.18;100.00;46910.44;5048115;28;20036;-72
2022/09/04 11:24:17;;;;;;;10.13;4.07;;;;;;;-145.18;100.00;46928.00;5044748;28;20095;-71
2022/09/04 11:27:06;;;;;;;4.60;3.08;;;;;;;-145.18;100.00;46924.09;5055098;28;20495;-71
2022/09/04 11:29:43;;;;;;;5.00;3.00;;;;;;;-145.18;100.00;46926.06;5052673;28;20108;-71
2022/09/04 11:32:50;;;;;;;5.72;3.22;;;;;;;-145.18;100.00;46937.78;5053194;28;20048;-71
2022/09/04 11:35:41;;;;;;;4.10;3.10;;;;;;;-145.18;100.00;46928.00;5040745;28;20079;-71
2022/09/04 11:38:42;;;;;;;6.68;3.67;;;;;;;-145.18;100.00;46935.81;5047732;28;20059;-73
2022/09/04 11:41:35;;;;;;;6.50;3.85;;;;;;;-145.18;100.00;46947.53;5045790;28;20063;-71
2022/09/04 11:44:20;;;;;;;4.75;3.88;;;;;;;-145.18;100.00;46949.50;5040770;28;20032;-71
2022/09/04 11:47:13;;;;;;;6.78;4.53;;;;;;;-145.18;100.00;46922.16;5045596;28;20031;-71
2022/09/04 11:49:52;;;;;;;7.75;4.03;;;;;;;-145.18;100.00;46941.69;5052583;28;20086;-71
2022/09/04 11:52:45;;;;;;;5.57;4.10;;;;;;;-145.18;100.00;46931.91;5052784;28;20035;-71
2022/09/04 11:55:48;;;;;;;5.55;3.63;;;;;;;-145.18;100.00;46898.72;5051760;28;20029;-71
2022/09/04 11:58:46;;;;;;;5.72;4.03;;;;;;;-145.18;100.00;46883.09;5052429;28;20094;-72
2022/09/04 12:01:30;;;;;;;8.40;3.95;;;;;;;-145.18;100.00;46885.03;5052482;28;20074;-71
2022/09/04 12:04:21;;;;;;;7.88;4.40;;;;;;;-145.18;100.00;46873.31;5039870;28;20037;-72
2022/09/04 12:06:57;;;;;;;4.60;3.17;;;;;;;-145.18;100.00;46871.38;5032148;28;20425;-71
2022/09/04 12:09:42;;;;;;;8.45;3.40;;;;;;;-145.18;100.00;46881.13;5031789;28;20068;-71
2022/09/04 12:12:33;;;;;;;9.70;3.42;;;;;;;-145.18;100.00;46863.53;5032202;28;20563;-72
2022/09/04 12:15:23;;;;;;;4.57;3.15;;;;;;;-145.18;100.00;46853.78;5031681;28;20040;-71
2022/09/04 12:18:00;;;;;;;3.95;2.53;;;;;;;-145.18;100.00;46890.91;5028661;28;20175;-71
2022/09/04 12:20:34;;;;;;;6.15;3.17;;;;;;;-145.18;100.00;46861.59;5038140;28;20100;-71
2022/09/04 12:23:26;;;;;;;7.32;4.57;;;;;;;-145.18;100.00;46896.75;5041098;28;20033;-72
2022/09/04 12:26:20;;;;;;;4.82;4.10;;;;;;;-145.18;100.00;46910.44;5049097;28;20056;-71